Time;durP1;ratioP1;P1;durP2;ratioP2;P2;SDS_P1;SDS_P2;PMS_P1;PMS_P2;Temp;Humidity;BMP_temperature;BMP_pressure;BME280_temperature;BME280_humidity;BME280_pressure;Samples;Min_cycle;Max_cycle;Signal;HPM_P1;HPM_P2
2021/10/29 00:01:22;;;;;;;11.87;7.83;;;;;;;;;;6184490;23;20390;-92
2021/10/29 00:03:48;;;;;;;8.63;7.93;;;;;;;;;;6184108;23;20450;-92
2021/10/29 00:06:14;;;;;;;8.07;7.37;;;;;;;;;;6208385;23;20359;-92
2021/10/29 00:08:41;;;;;;;7.73;7.13;;;;;;;;;;6181339;23;20531;-92
2021/10/29 00:11:07;;;;;;;10.83;8.60;;;;;;;;;;6183861;23;20379;-92
2021/10/29 00:13:33;;;;;;;7.40;6.80;;;;;;;;;;6209631;23;20380;-92
2021/10/29 00:16:03;;;;;;;8.67;7.77;;;12.70;95.10;;;;;;6209957;23;20379;-92
2021/10/29 00:18:29;;;;;;;8.90;8.00;;;;;;;;;;6184011;23;20376;-91
2021/10/29 00:20:58;;;;;;;8.30;7.50;;;;;;;;;;6184957;23;20399;-91
2021/10/29 00:23:25;;;;;;;12.10;7.63;;;;;;;;;;6210745;23;20384;-92
2021/10/29 00:25:51;;;;;;;6.97;6.37;;;;;;;;;;6183705;23;20367;-91
2021/10/29 00:28:19;;;;;;;7.53;6.93;;;;;;;;;;6207310;23;20464;-91
2021/10/29 00:30:47;;;;;;;7.20;6.70;;;12.80;95.00;;;;;;6207457;23;20364;-92
2021/10/29 00:33:21;;;;;;;7.33;6.70;;;;;;;;;;6210143;23;20356;-91
2021/10/29 00:35:50;;;;;;;6.83;6.37;;;12.80;95.00;;;;;;6210390;23;20368;-91
2021/10/29 00:38:16;;;;;;;8.07;7.47;;;;;;;;;;6181448;23;20399;-92
2021/10/29 00:40:42;;;;;;;6.77;6.30;;;;;;;;;;6185036;23;20400;-91
2021/10/29 00:43:10;;;;;;;7.50;6.67;;;12.80;99.90;;;;;;6182502;23;20445;-91
2021/10/29 00:45:51;;;;;;;10.23;7.43;;;12.90;99.90;;;;;;6185820;23;20415;-92
2021/10/29 00:48:35;;;;;;;9.40;7.00;;;12.60;95.40;;;;;;6207531;23;20362;-93
2021/10/29 00:51:18;;;;;;;8.27;6.10;;;12.60;95.10;;;;;;6203479;23;20387;-92
2021/10/29 00:53:53;;;;;;;6.80;6.20;;;12.60;95.30;;;;;;6184108;23;20375;-91
2021/10/29 00:56:24;;;;;;;11.03;7.37;;;12.60;95.30;;;;;;6221295;23;20505;-91
2021/10/29 00:58:53;;;;;;;8.67;7.20;;;12.80;99.90;;;;;;6244244;23;20389;-91
2021/10/29 01:01:21;;;;;;;8.60;6.60;;;14.60;99.90;;;;;;6241158;23;20383;-92
2021/10/29 01:03:50;;;;;;;7.13;6.63;;;14.60;99.90;;;;;;6240089;23;20425;-91
2021/10/29 01:06:16;;;;;;;7.07;6.37;;;12.40;99.90;;;;;;6228792;22;21448;-92
2021/10/29 01:08:45;;;;;;;11.20;6.80;;;;;;;;;;6210336;22;20364;-92
2021/10/29 01:11:17;;;;;;;6.97;6.40;;;12.60;95.40;;;;;;6207252;23;20348;-91
2021/10/29 01:13:52;;;;;;;6.80;6.20;;;12.50;95.80;;;;;;6212066;22;20733;-92
2021/10/29 01:16:22;;;;;;;6.30;5.90;;;12.50;95.80;;;;;;6186492;23;20391;-93
2021/10/29 01:18:55;;;;;;;7.03;6.37;;;12.50;99.90;;;;;;6212431;22;20372;-91
2021/10/29 01:21:31;;;;;;;7.57;6.97;;;11.50;97.00;;;;;;6211500;23;20383;-91
2021/10/29 01:23:57;;;;;;;6.90;6.40;;;;;;;;;;6184098;23;20422;-91
2021/10/29 01:26:23;;;;;;;7.00;6.50;;;;;;;;;;6181600;23;20383;-91
2021/10/29 01:29:01;;;;;;;;;;;;;;;;;;;;;
2021/10/29 01:31:40;;;;;;;6.50;6.00;;;12.50;95.90;;;;;;6188381;23;20351;-91
2021/10/29 01:34:06;;;;;;;8.10;5.67;;;;;;;;;;6181588;23;20399;-92
2021/10/29 01:36:43;;;;;;;7.80;6.60;;;12.60;95.60;;;;;;6186740;23;20395;-92
2021/10/29 01:39:09;;;;;;;7.30;6.80;;;16.60;99.90;;;;;;6204459;22;20434;-92
2021/10/29 01:41:37;;;;;;;6.53;6.10;;;;;;;;;;6187814;23;20360;-90
2021/10/29 01:44:10;;;;;;;6.90;6.30;;;12.60;95.60;;;;;;6188655;23;20180;-91
2021/10/29 01:46:36;;;;;;;6.90;6.30;;;14.40;99.90;;;;;;6211700;23;20376;-92
2021/10/29 01:49:09;;;;;;;7.20;6.03;;;12.60;95.20;;;;;;6182985;23;20382;-91
2021/10/29 01:51:35;;;;;;;6.63;6.10;;;;;;;;;;6208544;23;20117;-93
2021/10/29 01:54:01;;;;;;;6.20;5.80;;;12.70;99.90;;;;;;6184653;23;20383;-91
2021/10/29 01:56:28;;;;;;;6.57;6.07;;;;;;;;;;6206997;23;20411;-92
2021/10/29 01:58:59;;;;;;;7.67;7.07;;;12.80;94.70;;;;;;6183592;23;20455;-92
2021/10/29 02:01:25;;;;;;;7.53;6.50;;;;;;;;;;6209459;23;20391;-92
2021/10/29 02:03:52;;;;;;;5.63;5.30;;;;;;;;;;6187228;23;20433;-91
2021/10/29 02:06:18;;;;;;;6.40;5.87;;;;;;;;;;6185444;23;20402;-90
2021/10/29 02:08:45;;;;;;;5.60;5.30;;;12.90;94.30;;;;;;6193947;23;20426;-91
2021/10/29 02:11:11;;;;;;;6.83;6.20;;;;;;;;;;6241154;23;20373;-92
2021/10/29 02:13:38;;;;;;;6.40;5.80;;;12.30;93.70;;;;;;6241310;23;20395;-92
2021/10/29 02:16:41;;;;;;;;;;;;;;;;;;;;;
2021/10/29 02:19:12;;;;;;;8.47;7.67;;;;;;;;;;6232692;22;20430;-92
2021/10/29 02:21:40;;;;;;;5.53;5.10;;;;;;;;;;6209021;23;20396;-92
2021/10/29 02:24:11;;;;;;;6.17;5.57;;;12.90;93.90;;;;;;6210192;23;20504;-92
2021/10/29 02:27:16;;;;;;;6.60;6.20;;;18.60;99.10;;;;;;6187282;23;20387;-91
2021/10/29 02:30:03;;;;;;;7.00;6.50;;;15.60;95.60;;;;;;6210258;23;20383;-91
2021/10/29 02:32:42;;;;;;;6.80;5.93;;;12.90;99.90;;;;;;6210240;23;20387;-92
2021/10/29 02:35:18;;;;;;;6.47;6.00;;;12.90;99.90;;;;;;6209782;23;20384;-93
2021/10/29 02:51:01;;;;;;;7.10;6.50;;;12.90;94.40;;;;;;6260249;22;20453;-91
2021/10/29 02:53:30;;;;;;;6.53;6.03;;;16.80;98.40;;;;;;6274146;22;20421;-92
2021/10/29 02:58:51;;;;;;;8.00;5.47;;;12.80;94.00;;;;;;6200969;23;20454;-92
2021/10/29 03:01:17;;;;;;;6.63;5.93;;;;;;;;;;6209032;23;20423;-91
2021/10/29 03:03:44;;;;;;;6.47;6.00;;;12.90;93.20;;;;;;6210517;23;20434;-92
2021/10/29 03:06:10;;;;;;;6.47;5.50;;;;;;;;;;6208320;23;20422;-93
2021/10/29 03:09:08;;;;;;;7.80;7.00;;;12.90;93.20;;;;;;6209624;23;20379;-92
2021/10/29 03:11:51;;;;;;;7.20;6.57;;;12.20;95.10;;;;;;6209169;23;20410;-93
2021/10/29 03:14:18;;;;;;;12.10;5.90;;;;;;;;;;6209343;23;20426;-92
2021/10/29 03:17:23;;;;;;;5.67;5.27;;;12.90;93.30;;;;;;6204497;23;20457;-93
2021/10/29 03:22:44;;;;;;;5.77;5.33;;;13.00;93.60;;;;;;6211186;22;20466;-90
2021/10/29 03:25:12;;;;;;;6.83;5.37;;;;;;;;;;6183839;23;20430;-91
2021/10/29 03:27:44;;;;;;;6.13;5.73;;;12.90;93.10;;;;;;6207152;23;20366;-93
2021/10/29 03:30:23;;;;;;;4.47;4.13;;;14.50;95.80;;;;;;6209853;22;20374;-90
2021/10/29 03:32:53;;;;;;;5.77;5.47;;;13.70;95.30;;;;;;6207533;22;20379;-93
2021/10/29 03:35:24;;;;;;;11.00;5.77;;;13.70;94.90;;;;;;6156557;23;20410;-92
2021/10/29 03:38:26;;;;;;;5.57;5.10;;;16.60;97.40;;;;;;6196729;23;20842;-91
2021/10/29 03:40:56;;;;;;;5.30;4.97;;;;;;;;;;6207623;23;20391;-91
2021/10/29 03:43:32;;;;;;;4.63;4.33;;;;;;;;;;6207426;23;20391;-91
2021/10/29 03:51:19;;;;;;;5.80;5.40;;;13.20;92.50;;;;;;6209925;23;20402;-92
2021/10/29 03:53:50;;;;;;;5.30;5.10;;;;;;;;;;6208475;23;20367;-92
2021/10/29 03:56:21;;;;;;;4.73;4.53;;;;;;;;;;6211047;23;20354;-91
2021/10/29 03:59:05;;;;;;;5.67;5.10;;;13.30;92.00;;;;;;6209989;23;20381;-92
2021/10/29 04:01:34;;;;;;;6.73;5.93;;;14.20;92.90;;;;;;6211249;23;20355;-93
2021/10/29 04:04:30;;;;;;;5.33;5.13;;;13.10;92.10;;;;;;6209911;23;20422;-93
2021/10/29 04:07:16;;;;;;;5.57;5.27;;;17.10;96.10;;;;;;6197195;23;20411;-90
2021/10/29 04:12:25;;;;;;;6.40;5.93;;;13.20;92.10;;;;;;6204454;23;20435;-92
2021/10/29 04:14:59;;;;;;;6.03;5.53;;;;;;;;;;6209383;23;20363;-92
2021/10/29 04:17:25;;;;;;;5.20;4.80;;;;;;;;;;6197227;23;20493;-91
2021/10/29 04:19:51;;;;;;;5.07;4.77;;;;;;;;;;6210849;23;20380;-91
2021/10/29 04:22:17;;;;;;;5.50;5.10;;;;;;;;;;6211335;23;20387;-93
2021/10/29 04:27:21;;;;;;;5.87;5.37;;;;;;;;;;6239248;22;20433;-92
2021/10/29 04:29:52;;;;;;;5.30;5.00;;;;;;;;;;6215067;23;20370;-92
2021/10/29 04:32:23;;;;;;;5.13;4.80;;;;;;;;;;6213503;23;20449;-90
2021/10/29 04:34:55;;;;;;;6.13;5.80;;;13.30;91.40;;;;;;6217044;23;20453;-92
2021/10/29 04:37:22;;;;;;;6.73;6.10;;;;;;;;;;6213030;22;20439;-92
2021/10/29 04:39:59;;;;;;;6.23;5.83;;;13.20;91.60;;;;;;6212255;23;20378;-91
2021/10/29 04:42:26;;;;;;;8.13;5.97;;;;;;;;;;6238042;23;20421;-93
2021/10/29 04:45:31;;;;;;;6.53;6.03;;;13.20;91.70;;;;;;6215714;23;20453;-92
2021/10/29 04:48:14;;;;;;;7.80;7.03;;;13.30;93.40;;;;;;6180310;22;20451;-90
2021/10/29 04:51:14;;;;;;;6.70;6.13;;;13.20;99.90;;;;;;6205932;23;20410;-90
2021/10/29 04:53:59;;;;;;;6.40;5.77;;;12.50;91.90;;;;;;6210161;23;20395;-91
2021/10/29 04:56:43;;;;;;;6.47;6.03;;;;;;;;;;6203047;23;20390;-90
2021/10/29 04:59:15;;;;;;;5.87;5.43;;;;;;;;;;6185891;23;20362;-89
2021/10/29 05:01:45;;;;;;;6.03;5.53;;;;;;;;;;6210948;23;20371;-91
2021/10/29 05:04:37;;;;;;;5.40;5.10;;;11.60;90.90;;;;;;6186175;23;20418;-91
2021/10/29 05:07:11;;;;;;;5.80;5.40;;;12.10;94.60;;;;;;6207605;23;20716;-91
2021/10/29 05:09:40;;;;;;;5.97;5.30;;;14.80;94.90;;;;;;6184790;23;20374;-91
2021/10/29 05:14:42;;;;;;;5.30;4.90;;;;;;;;;;6231402;22;20461;-92
2021/10/29 05:17:23;;;;;;;6.17;5.57;;;13.30;91.20;;;;;;6214201;23;20393;-91
2021/10/29 05:20:00;;;;;;;5.80;5.30;;;13.20;98.90;;;;;;6217725;22;20378;-93
2021/10/29 05:22:54;;;;;;;5.90;5.40;;;15.60;94.70;;;;;;6238098;23;20383;-93
2021/10/29 05:25:54;;;;;;;5.47;5.13;;;13.30;91.30;;;;;;6238213;23;20419;-93
2021/10/29 05:28:36;;;;;;;5.37;5.00;;;13.30;91.30;;;;;;6209338;23;20391;-92
2021/10/29 05:31:30;;;;;;;5.20;4.70;;;13.50;99.10;;;;;;6212463;23;20371;-90
2021/10/29 05:33:56;;;;;;;5.07;4.70;;;14.10;94.10;;;;;;6210684;23;20427;-88
2021/10/29 05:36:32;;;;;;;3.93;3.60;;;13.30;90.80;;;;;;6214377;23;20395;-92
2021/10/29 05:39:10;;;;;;;5.20;4.90;;;12.60;93.10;;;;;;6189630;23;20402;-90
2021/10/29 05:41:47;;;;;;;;;;;;;;;;;;;;;
2021/10/29 05:44:20;;;;;;;6.17;5.63;;;13.30;91.00;;;;;;6238774;22;20430;-89
2021/10/29 05:47:16;;;;;;;6.00;5.50;;;13.20;99.90;;;;;;6238327;23;20351;-91
2021/10/29 05:49:43;;;;;;;4.70;4.30;;;;;;;;;;6231698;23;20428;-93
2021/10/29 05:52:25;;;;;;;7.53;5.27;;;;;;;;;;6207289;23;20386;-90
2021/10/29 05:57:33;;;;;;;5.67;5.17;;;13.20;90.70;;;;;;6247488;22;20431;-92
2021/10/29 06:00:10;;;;;;;6.97;6.33;;;16.30;94.50;;;;;;6207316;23;20389;-92
2021/10/29 06:02:47;;;;;;;7.50;5.37;;;13.20;91.20;;;;;;6234855;23;20347;-89
2021/10/29 06:05:24;;;;;;;5.57;5.17;;;13.70;91.60;;;;;;6231271;23;20422;-91
2021/10/29 06:07:59;;;;;;;6.03;5.73;;;13.20;99.90;;;;;;6208821;22;20378;-92
2021/10/29 06:10:46;;;;;;;5.40;5.00;;;13.20;92.50;;;;;;6209107;23;20379;-91
2021/10/29 06:13:12;;;;;;;5.13;4.73;;;;;;;;;;6207043;23;20402;-90
2021/10/29 06:15:42;;;;;;;6.23;5.83;;;13.20;90.20;;;;;;6233930;23;20497;-90
2021/10/29 06:18:09;;;;;;;5.73;5.23;;;;;;;;;;6208362;23;20382;-89
2021/10/29 06:20:35;;;;;;;5.57;5.17;;;;;;;;;;6206547;23;20386;-90
2021/10/29 06:23:06;;;;;;;7.37;5.70;;;;;;;;;;6208192;23;20390;-92
2021/10/29 06:25:40;;;;;;;5.33;5.00;;;13.20;90.30;;;;;;6182224;23;20464;-92
2021/10/29 06:30:52;;;;;;;5.77;5.30;;;13.20;90.50;;;;;;6232681;23;20714;-91
2021/10/29 06:33:42;;;;;;;6.17;5.57;;;13.10;90.30;;;;;;6207901;23;20371;-91
2021/10/29 06:36:09;;;;;;;5.53;5.07;;;13.10;99.90;;;;;;6202014;23;20147;-91
2021/10/29 06:38:35;;;;;;;5.90;5.50;;;;;;;;;;6203430;23;20398;-86
2021/10/29 06:41:01;;;;;;;6.13;4.90;;;13.20;90.20;;;;;;6200891;23;20441;-90
2021/10/29 06:43:52;;;;;;;5.70;5.27;;;;;;;;;;6177523;23;20409;-90
2021/10/29 06:52:36;;;;;;;5.30;4.90;;;12.80;91.10;;;;;;6228360;23;20393;-91
2021/10/29 07:49:17;;;;;;;6.87;6.10;;;13.80;99.90;;;;;;6093723;23;20396;-92
2021/10/29 07:52:15;;;;;;;5.80;5.40;;;14.10;91.80;;;;;;6157661;23;20383;-90
2021/10/29 07:54:45;;;;;;;6.47;5.87;;;15.80;91.10;;;;;;6225777;23;20409;-91
2021/10/29 07:57:30;;;;;;;6.60;6.20;;;14.60;91.70;;;;;;6178678;23;20390;-90
2021/10/29 07:59:56;;;;;;;6.07;5.80;;;14.20;98.50;;;;;;6204173;23;20383;-90
2021/10/29 08:02:24;;;;;;;11.03;6.40;;;14.30;87.90;;;;;;6202072;23;20398;-91
2021/10/29 08:05:05;;;;;;;6.63;6.20;;;14.40;91.00;;;;;;6230386;23;20179;-90
2021/10/29 08:07:32;;;;;;;6.80;6.27;;;14.30;86.80;;;;;;6225261;23;20367;-92
2021/10/29 08:10:16;;;;;;;6.27;5.97;;;14.50;93.00;;;;;;6228273;23;20370;-94
2021/10/29 08:12:51;;;;;;;6.47;5.60;;;15.90;94.60;;;;;;6200048;23;20386;-90
2021/10/29 08:15:18;;;;;;;5.60;5.27;;;;;;;;;;6202326;23;20386;-90
2021/10/29 08:17:52;;;;;;;5.80;5.57;;;14.40;97.90;;;;;;6198719;23;20367;-91
2021/10/29 08:20:22;;;;;;;6.73;5.80;;;;;;;;;;6201913;23;20379;-90
2021/10/29 08:22:51;;;;;;;5.97;5.47;;;14.50;86.00;;;;;;6172214;23;20391;-91
2021/10/29 08:25:27;;;;;;;5.50;5.10;;;14.70;97.60;;;;;;6173388;23;20435;-92
2021/10/29 08:27:56;;;;;;;5.43;4.93;;;14.80;89.40;;;;;;6197630;23;20386;-90
2021/10/29 08:30:23;;;;;;;5.07;4.87;;;;;;;;;;6175192;23;20429;-91
2021/10/29 08:32:58;;;;;;;6.20;5.70;;;14.70;94.10;;;;;;6170599;23;20450;-89
2021/10/29 08:35:32;;;;;;;6.70;6.00;;;17.60;88.40;;;;;;6170455;23;20418;-91
2021/10/29 08:38:02;;;;;;;6.53;6.13;;;15.70;87.30;;;;;;6169102;23;20397;-91
2021/10/29 08:40:37;;;;;;;8.90;6.63;;;17.70;92.80;;;;;;6169219;23;20866;-91
2021/10/29 08:43:03;;;;;;;6.67;6.17;;;17.20;90.80;;;;;;6170025;23;20523;-92
2021/10/29 08:52:31;;;;;;;5.87;5.47;;;15.00;97.60;;;;;;6200627;23;20375;-92
2021/10/29 08:56:00;;;;;;;;;;;;;;;;;;;;;
2021/10/29 08:59:32;;;;;;;7.07;6.43;;;15.60;81.60;;;;;;6204761;23;20375;-89
2021/10/29 09:05:18;;;;;;;6.40;6.00;;;17.10;92.10;;;;;;6201927;23;20434;-92
2021/10/29 09:08:00;;;;;;;7.00;6.53;;;17.30;74.60;;;;;;6177608;23;20382;-90
2021/10/29 09:31:26;;;;;;;6.13;5.77;;;19.00;63.00;;;;;;6231432;23;20377;-87
2021/10/29 09:34:04;;;;;;;6.60;6.00;;;20.30;59.00;;;;;;6212185;23;20428;-92
2021/10/29 09:36:51;;;;;;;6.23;5.63;;;21.70;58.40;;;;;;6205418;23;20387;-90
2021/10/29 09:39:19;;;;;;;6.83;6.30;;;21.10;55.50;;;;;;6228693;23;20369;-89
2021/10/29 09:42:17;;;;;;;;;;;;;;;;;;;;;
2021/10/29 09:44:52;;;;;;;6.87;6.43;;;21.40;54.40;;;;;;6230413;23;20445;-90
2021/10/29 09:47:25;;;;;;;5.33;5.10;;;;;;;;;;6203295;23;20385;-89
2021/10/29 09:50:04;;;;;;;6.20;5.80;;;;;;;;;;6203176;23;20355;-89
2021/10/29 09:55:56;;;;;;;5.40;5.20;;;;;;;;;;6237272;22;20400;-91
2021/10/29 09:58:27;;;;;;;7.03;6.43;;;;;;;;;;6209533;23;20389;-90
2021/10/29 10:01:22;;;;;;;6.53;5.73;;;;;;;;;;6187166;23;20434;-88
2021/10/29 10:03:50;;;;;;;5.70;5.50;;;;;;;;;;6203628;23;20367;-87
2021/10/29 10:06:18;;;;;;;5.10;5.00;;;;;;;;;;6199545;23;20386;-89
2021/10/29 10:08:47;;;;;;;5.33;5.07;;;;;;;;;;6197262;23;20672;-90
2021/10/29 10:11:15;;;;;;;5.33;5.07;;;;;;;;;;6221686;23;20363;-88
2021/10/29 10:13:42;;;;;;;4.70;4.40;;;;;;;;;;6194391;23;20438;-90
2021/10/29 10:16:09;;;;;;;6.10;5.00;;;;;;;;;;6195625;23;20520;-90
2021/10/29 10:18:37;;;;;;;5.60;5.30;;;;;;;;;;6226325;23;20426;-91
2021/10/29 10:21:05;;;;;;;5.33;5.13;;;;;;;;;;6197525;23;20397;-90
2021/10/29 10:23:35;;;;;;;6.40;6.00;;;;;;;;;;6199264;23;20375;-88
2021/10/29 10:51:43;;;;;;;6.50;5.47;;;;;;;;;;6231166;23;20427;-89
2021/10/29 10:57:07;;;;;;;5.33;4.83;;;;;;;;;;6243191;23;20359;-89
2021/10/29 11:03:21;;;;;;;4.87;4.60;;;;;;;;;;6237210;23;20418;-90
2021/10/29 11:11:49;;;;;;;5.77;5.37;;;21.40;51.20;;;;;;6235877;23;20759;-88
2021/10/29 11:14:39;;;;;;;4.60;4.50;;;20.30;52.10;;;;;;6209121;23;20445;-89
2021/10/29 11:17:05;;;;;;;4.27;4.17;;;21.80;53.50;;;;;;6207001;23;20385;-91
2021/10/29 11:19:57;;;;;;;9.83;5.00;;;20.00;52.60;;;;;;6232467;23;20354;-89
2021/10/29 11:22:46;;;;;;;4.80;4.60;;;21.50;54.60;;;;;;6207069;23;20241;-93
2021/10/29 11:25:21;;;;;;;5.40;5.00;;;;;;;;;;6232796;23;20422;-90
2021/10/29 11:27:57;;;;;;;4.93;4.60;;;20.00;52.90;;;;;;6206995;23;20374;-88
2021/10/29 11:30:44;;;;;;;5.13;4.93;;;20.30;54.10;;;;;;6233928;23;20377;-91
2021/10/29 11:33:10;;;;;;;5.73;5.40;;;;;;;;;;6205487;23;20862;-90
2021/10/29 11:35:51;;;;;;;5.10;4.80;;;21.50;51.30;;;;;;6202943;23;20378;-91
2021/10/29 11:38:27;;;;;;;5.20;4.90;;;25.00;53.30;;;;;;6183096;23;20379;-88
2021/10/29 11:40:53;;;;;;;4.33;4.20;;;;;;;;;;6205550;23;20382;-90
2021/10/29 11:43:26;;;;;;;5.77;5.33;;;22.10;49.00;;;;;;6203714;23;20378;-87
2021/10/29 11:45:56;;;;;;;5.10;4.80;;;21.90;49.60;;;;;;6200577;23;20467;-90
2021/10/29 11:48:25;;;;;;;5.30;5.10;;;22.50;54.20;;;;;;6202891;23;20375;-91
2021/10/29 11:51:13;;;;;;;5.67;5.40;;;19.20;50.40;;;;;;6197929;23;20457;-90
2021/10/29 11:53:47;;;;;;;5.10;5.00;;;21.70;49.50;;;;;;6224979;23;20363;-88
2021/10/29 11:56:36;;;;;;;4.90;4.70;;;21.20;50.20;;;;;;6226077;23;20354;-90
2021/10/29 12:07:33;;;;;;;4.90;4.60;;;22.20;52.50;;;;;;6229506;23;20445;-90
2021/10/29 12:10:04;;;;;;;5.03;4.70;;;22.40;53.50;;;;;;6227411;23;20382;-87
2021/10/29 12:12:32;;;;;;;4.10;3.90;;;21.20;52.50;;;;;;6197309;23;20891;-89
2021/10/29 12:15:14;;;;;;;5.20;4.90;;;21.30;50.80;;;;;;6200457;23;20434;-90
2021/10/29 12:18:04;;;;;;;5.33;4.90;;;23.00;53.40;;;;;;6198765;23;20828;-89
2021/10/29 12:20:42;;;;;;;4.27;4.03;;;22.70;52.40;;;;;;6201055;23;20382;-89
2021/10/29 12:23:16;;;;;;;3.93;3.83;;;24.60;53.80;;;;;;6228825;23;20359;-90
2021/10/29 12:28:26;;;;;;;5.90;4.17;;;22.00;50.10;;;;;;6233975;23;20370;-91
2021/10/29 12:31:04;;;;;;;4.10;3.90;;;22.60;49.00;;;;;;6195821;23;20389;-88
2021/10/29 12:53:23;;;;;;;5.63;5.13;;;20.10;51.60;;;;;;6227574;23;20369;-85
2021/10/29 13:02:00;;;;;;;4.50;4.30;;;19.40;53.20;;;;;;6231287;23;20413;-90
2021/10/29 13:04:40;;;;;;;4.90;4.20;;;20.10;55.20;;;;;;6205644;23;20491;-90
2021/10/29 13:07:25;;;;;;;4.80;4.47;;;18.80;56.80;;;;;;6230334;23;20363;-88
2021/10/29 13:10:09;;;;;;;3.80;3.73;;;19.40;56.20;;;;;;6225356;23;20395;-88
2021/10/29 13:15:23;;;;;;;5.30;4.90;;;18.70;55.90;;;;;;6227365;23;20863;-91
2021/10/29 13:18:24;;;;;;;4.30;4.00;;;21.20;61.20;;;;;;6230661;23;20787;-88
2021/10/29 13:51:42;;;;;;;4.50;4.17;;;25.80;55.00;;;;;;6225831;23;20358;-90
2021/10/29 13:59:48;;;;;;;4.27;4.07;;;26.60;52.70;;;;;;6221492;23;20390;-91
2021/10/29 14:16:43;;;;;;;3.30;3.27;;;22.40;49.60;;;;;;6230666;23;20389;-89
2021/10/29 14:30:20;;;;;;;3.90;3.80;;;24.50;51.60;;;;;;6227320;23;20447;-92
2021/10/29 14:33:01;;;;;;;3.70;3.60;;;;;;;;;;6197280;23;20378;-91
2021/10/29 14:35:41;;;;;;;3.33;3.27;;;21.80;50.10;;;;;;6225462;23;20355;-90
2021/10/29 14:41:09;;;;;;;4.50;4.30;;;21.60;50.90;;;;;;6240622;23;20342;-90
2021/10/29 14:43:44;;;;;;;4.20;4.10;;;20.60;52.10;;;;;;6230227;23;20362;-91
2021/10/29 14:46:51;;;;;;;3.70;3.40;;;24.80;55.70;;;;;;6200975;23;20456;-90
2021/10/29 14:49:58;;;;;;;5.80;4.10;;;;;;;;;;6202298;23;20375;-91
2021/10/29 15:06:26;;;;;;;4.63;3.90;;;19.00;57.80;;;;;;6239059;23;20471;-91
2021/10/29 15:17:29;;;;;;;4.30;4.10;;;18.20;58.20;;;;;;6235283;23;20375;-88
2021/10/29 15:26:09;;;;;;;4.07;3.67;;;18.30;59.60;;;;;;6229523;23;20472;-91
2021/10/29 15:31:33;;;;;;;4.10;3.87;;;;;;;;;;6226741;23;20393;-88
2021/10/29 15:44:35;;;;;;;4.17;3.97;;;18.30;63.70;;;;;;6228979;23;20413;-90
2021/10/29 15:47:22;;;;;;;;;;;;;;;;;;;;;
2021/10/29 15:50:07;;;;;;;;;;;;;;;;;;;;;
2021/10/29 15:52:33;;;;;;;4.30;4.10;;;;;;;;;;6229872;23;20367;-89
2021/10/29 15:55:07;;;;;;;4.30;4.10;;;17.30;64.30;;;;;;6201362;23;20375;-88
2021/10/29 15:57:45;;;;;;;3.80;3.70;;;18.20;72.20;;;;;;6230821;23;20428;-89
2021/10/29 16:00:50;;;;;;;4.00;3.80;;;17.60;71.00;;;;;;6203218;23;20374;-91
2021/10/29 16:17:49;;;;;;;3.53;3.43;;;;;;;;;;6229481;23;20381;-91
2021/10/29 16:20:22;;;;;;;8.07;3.90;;;16.70;70.80;;;;;;6206169;23;20374;-89
2021/10/29 16:22:56;;;;;;;3.83;3.63;;;16.70;71.20;;;;;;6204855;23;20382;-91
2021/10/29 16:25:30;;;;;;;4.00;3.80;;;;;;;;;;6232786;23;20472;-90
2021/10/29 16:28:02;;;;;;;4.03;3.73;;;;;;;;;;6231173;23;20366;-90
2021/10/29 16:30:42;;;;;;;4.17;3.93;;;16.20;72.50;;;;;;6209265;23;20379;-90
2021/10/29 16:33:28;;;;;;;6.10;4.00;;;14.50;73.30;;;;;;6203083;22;20477;-91
2021/10/29 16:35:54;;;;;;;3.73;3.60;;;;;;;;;;6203464;23;20398;-91
2021/10/29 16:38:20;;;;;;;4.20;4.00;;;;;;;;;;6176389;23;20477;-88
2021/10/29 16:40:57;;;;;;;4.23;4.03;;;16.90;72.90;;;;;;6203412;23;20387;-93
2021/10/29 16:43:24;;;;;;;6.47;5.97;;;16.70;76.80;;;;;;6206668;23;20394;-89
2021/10/29 16:46:02;;;;;;;3.60;3.60;;;16.50;72.30;;;;;;6204978;23;20490;-91
2021/10/29 16:48:28;;;;;;;4.30;3.80;;;;;;;;;;6205372;23;20379;-91
2021/10/29 16:51:28;;;;;;;;;;;;;;;;;;;;;
2021/10/29 16:54:00;;;;;;;4.03;3.93;;;17.00;74.30;;;;;;6114427;23;20405;-90
2021/10/29 16:56:28;;;;;;;3.70;3.60;;;;;;;;;;6196413;23;20383;-91
2021/10/29 16:58:57;;;;;;;3.87;3.60;;;;;;;;;;6205396;23;20378;-90
2021/10/29 17:01:37;;;;;;;3.97;3.77;;;16.40;73.40;;;;;;6206392;23;20439;-93
2021/10/29 17:04:10;;;;;;;3.90;3.70;;;16.80;75.50;;;;;;6182183;23;20878;-92
2021/10/29 17:06:43;;;;;;;3.93;3.83;;;19.00;80.80;;;;;;6206768;23;20399;-91
2021/10/29 17:09:11;;;;;;;6.57;5.13;;;15.50;73.30;;;;;;6201418;23;20439;-92
2021/10/29 17:11:39;;;;;;;4.87;4.30;;;16.40;74.60;;;;;;6197816;23;20394;-90
2021/10/29 17:14:05;;;;;;;3.90;3.70;;;;;;;;;;6201904;23;20378;-88
2021/10/29 17:17:06;;;;;;;;;;;;;;;;;;;;;
2021/10/29 17:19:39;;;;;;;3.70;3.60;;;14.70;73.80;;;;;;6204431;23;20355;-92
2021/10/29 17:22:07;;;;;;;5.57;5.13;;;16.60;78.70;;;;;;6205238;23;20399;-91
2021/10/29 17:24:48;;;;;;;4.57;4.13;;;16.30;91.10;;;;;;6206439;23;20411;-92
2021/10/29 17:27:23;;;;;;;4.17;4.07;;;16.30;91.00;;;;;;6204920;23;20387;-90
2021/10/29 17:30:08;;;;;;;5.20;4.70;;;16.30;74.50;;;;;;6200360;23;20429;-91
2021/10/29 17:32:34;;;;;;;4.07;3.87;;;;;;;;;;6206033;23;20454;-92
2021/10/29 17:35:00;;;;;;;4.57;4.17;;;;;;;;;;6204017;23;20380;-91
2021/10/29 17:37:31;;;;;;;4.60;4.40;;;16.40;73.80;;;;;;6200289;23;20379;-93
2021/10/29 17:40:04;;;;;;;6.87;4.53;;;18.40;76.20;;;;;;6202011;23;20375;-92
2021/10/29 17:42:40;;;;;;;9.13;4.40;;;18.50;77.30;;;;;;6201492;23;20455;-91
2021/10/29 17:45:09;;;;;;;4.97;4.70;;;16.20;73.30;;;;;;6200917;23;20437;-91
2021/10/29 17:47:38;;;;;;;5.07;4.77;;;16.70;78.20;;;;;;6199428;23;20395;-89
2021/10/29 17:50:07;;;;;;;5.10;4.67;;;16.40;79.80;;;;;;6225651;23;20464;-91
2021/10/29 17:52:40;;;;;;;4.47;4.27;;;18.30;77.40;;;;;;6228180;23;20464;-92
2021/10/29 17:55:06;;;;;;;4.60;4.40;;;16.40;75.50;;;;;;6202920;23;20462;-93
2021/10/29 17:57:35;;;;;;;4.33;4.23;;;16.30;81.80;;;;;;6224136;23;20387;-91
2021/10/29 18:03:07;;;;;;;4.33;4.13;;;16.40;76.00;;;;;;6212998;22;20530;-91
2021/10/29 18:05:38;;;;;;;5.07;4.67;;;18.30;78.90;;;;;;6198078;23;20461;-92
2021/10/29 18:08:23;;;;;;;5.00;4.80;;;16.20;91.50;;;;;;6163516;22;20454;-93
2021/10/29 18:10:51;;;;;;;6.17;5.83;;;;;;;;;;6181166;23;20453;-88
2021/10/29 18:13:22;;;;;;;5.27;4.83;;;;;;;;;;6211432;23;20442;-91
2021/10/29 18:15:49;;;;;;;4.60;4.40;;;;;;;;;;6211348;23;20386;-93
2021/10/29 18:18:33;;;;;;;6.70;5.53;;;16.30;74.80;;;;;;6207490;23;20386;-91
2021/10/29 18:21:10;;;;;;;6.30;4.97;;;18.20;86.20;;;;;;6201158;23;20474;-91
2021/10/29 18:23:36;;;;;;;5.10;4.70;;;;;;;;;;6199175;23;20387;-92
2021/10/29 18:26:31;;;;;;;4.90;4.70;;;15.20;74.80;;;;;;6201397;23;20439;-91
2021/10/29 18:29:06;;;;;;;5.13;4.80;;;;;;;;;;6205511;23;20368;-90
2021/10/29 18:31:55;;;;;;;4.87;4.67;;;16.20;76.00;;;;;;6201620;23;20455;-91
2021/10/29 18:34:26;;;;;;;4.83;4.47;;;;;;;;;;6200050;23;20395;-90
2021/10/29 18:37:04;;;;;;;6.10;5.80;;;16.30;76.20;;;;;;6204084;23;20439;-91
2021/10/29 18:39:30;;;;;;;6.30;4.20;;;;;;;;;;6201960;23;20394;-91
2021/10/29 18:48:04;;;;;;;4.47;4.23;;;16.40;76.30;;;;;;6229104;22;20438;-91
2021/10/29 18:50:40;;;;;;;4.20;4.00;;;15.60;76.70;;;;;;6235597;23;20444;-92
2021/10/29 18:53:18;;;;;;;5.63;5.27;;;16.80;92.30;;;;;;6238567;23;20402;-90
2021/10/29 18:55:48;;;;;;;4.47;4.17;;;19.90;81.90;;;;;;6240059;23;20401;-92
2021/10/29 19:10:36;;;;;;;4.77;4.47;;;16.40;91.80;;;;;;5912583;24;20383;-91
2021/10/29 19:48:44;;;;;;;5.30;4.83;;;16.30;77.20;;;;;;6201131;23;20449;-91
2021/10/29 19:51:16;;;;;;;5.10;4.90;;;16.10;92.60;;;;;;6184882;23;20394;-92
2021/10/29 19:53:51;;;;;;;5.37;5.07;;;15.00;78.20;;;;;;6211644;23;20804;-93
2021/10/29 19:57:18;;;;;;;;;;;;;;;;;;;;;
2021/10/29 19:59:48;;;;;;;4.10;4.00;;;19.40;85.00;;;;;;6238114;23;20381;-93
2021/10/29 20:02:45;;;;;;;5.23;4.93;;;18.90;84.50;;;;;;6214403;23;20421;-92
2021/10/29 20:05:33;;;;;;;;;;;;;;;;;;;;;
2021/10/29 20:08:13;;;;;;;5.47;5.27;;;15.90;94.10;;;;;;6216559;23;20369;-92
2021/10/29 20:11:10;;;;;;;7.93;5.50;;;15.90;93.60;;;;;;6215821;23;20374;-88
2021/10/29 20:13:55;;;;;;;6.13;5.53;;;16.40;79.70;;;;;;6189594;23;20433;-91
2021/10/29 20:17:13;;;;;;;8.20;6.27;;;17.70;83.80;;;;;;6215527;23;20402;-92
2021/10/29 20:19:54;;;;;;;6.83;6.30;;;;;;;;;;6145002;23;20396;-90
2021/10/29 20:22:50;;;;;;;5.70;5.50;;;15.80;94.50;;;;;;6213551;23;20366;-92
2021/10/29 20:28:21;;;;;;;;;;;;;;;;;;;;;
2021/10/29 20:30:58;;;;;;;6.27;5.47;;;18.60;90.40;;;;;;6146703;23;20371;-91
2021/10/29 20:34:41;;;;;;;6.03;5.53;;;15.90;90.60;;;;;;6162908;23;20379;-90
2021/10/29 20:37:58;;;;;;;7.50;6.90;;;15.40;86.40;;;;;;6092248;23;20390;-89
2021/10/29 20:45:37;;;;;;;6.47;6.07;;;15.30;92.50;;;;;;6270734;22;20453;-91
2021/10/29 20:48:11;;;;;;;6.00;5.50;;;15.30;91.90;;;;;;6270876;23;20449;-91
2021/10/29 20:51:01;;;;;;;6.73;6.43;;;12.60;91.00;;;;;;6221085;23;20420;-90
2021/10/29 20:53:33;;;;;;;6.60;6.10;;;14.10;91.50;;;;;;6236455;23;20382;-91
2021/10/29 20:56:08;;;;;;;7.73;6.87;;;15.20;93.40;;;;;;6246349;23;20377;-90